Terminal Aerodrome Forecast
Issued by NWS

Home | Current Version | Previous Version | Text Only | Print | Product List | Glossary On
Versions: 1 2 3 4 5 6 7 8 9 10 11
000
FTUS45 KRIW 291100
TAFLND
TAF
KLND 291126Z 2912/3012 33006KT 1 1/2SM -SN SCT010 OVC020
     FM291700 VRB06KT 5SM -SN SCT015 BKN025
     FM300000 VRB05KT 5SM -SN SCT025 OVC040
     FM300700 VRB04KT P6SM -SN OVC040=

USA.gov is the U.S. government's official web portal to all federal, state and local government web resources and services.